createdAt,value
2023-05-15T00:08:23.088Z,4.28
2023-05-15T00:18:24.964Z,4.18
2023-05-15T00:28:26.869Z,4.88
2023-05-15T00:38:28.762Z,4.18
2023-05-15T00:48:46.943Z,3.80
2023-05-15T00:58:50.925Z,4.40
2023-05-15T01:08:56.502Z,4.30
2023-05-15T01:19:05.958Z,5.97
2023-05-15T01:29:45.788Z,6.13
2023-05-15T01:39:51.951Z,4.57
2023-05-15T01:49:56.293Z,4.40
2023-05-15T02:00:00.139Z,5.15
2023-05-15T02:10:02.922Z,3.65
2023-05-15T02:20:08.780Z,4.95
2023-05-15T02:30:16.708Z,3.50
2023-05-15T02:40:21.961Z,4.60
2023-05-15T02:50:24.002Z,3.63
2023-05-15T03:00:29.354Z,4.38
2023-05-15T03:10:43.335Z,5.07
2023-05-15T03:20:53.228Z,3.63
2023-05-15T03:30:57.328Z,5.00
2023-05-15T03:40:59.230Z,5.07
2023-05-15T03:51:01.191Z,4.63
2023-05-15T04:01:04.388Z,3.47
2023-05-15T04:11:06.933Z,4.50
2023-05-15T04:21:08.853Z,4.80
2023-05-15T04:31:17.280Z,6.20
2023-05-15T04:41:21.245Z,4.40
2023-05-15T04:51:23.159Z,5.07
2023-05-15T05:01:46.204Z,4.60
2023-05-15T05:11:48.361Z,4.70
2023-05-15T05:21:54.731Z,5.00
2023-05-15T05:32:00.295Z,7.47
2023-05-15T05:42:02.598Z,6.40
2023-05-15T05:52:08.667Z,7.75
2023-05-15T06:02:22.888Z,5.72
2023-05-15T06:12:37.189Z,7.38
2023-05-15T06:22:39.443Z,5.00
2023-05-15T06:32:42.284Z,4.93
2023-05-15T06:42:44.949Z,5.70
2023-05-15T06:52:46.966Z,6.60
2023-05-15T07:02:52.124Z,6.72
2023-05-15T07:12:54.161Z,5.63
2023-05-15T07:22:56.932Z,7.22
2023-05-15T07:33:16.649Z,7.18
2023-05-15T07:43:24.638Z,8.48
2023-05-15T07:53:30.672Z,6.38
2023-05-15T08:03:33.253Z,8.20
2023-05-15T08:13:37.445Z,8.13
2023-05-15T08:23:44.692Z,10.05
2023-05-15T08:33:55.649Z,6.57
2023-05-15T08:43:59.252Z,10.30
2023-05-15T08:54:01.303Z,8.00
2023-05-15T09:04:05.992Z,4.40
2023-05-15T09:14:15.569Z,4.93
2023-05-15T09:24:25.681Z,5.60
2023-05-15T09:34:43.041Z,5.10
2023-05-15T09:44:46.581Z,5.15
2023-05-15T09:54:50.694Z,5.55
2023-05-15T10:04:57.338Z,4.65
2023-05-15T10:15:04.019Z,9.10
2023-05-15T10:25:34.955Z,8.80
2023-05-15T10:35:52.399Z,9.95
2023-05-15T10:45:55.962Z,10.18
2023-05-15T10:55:58.130Z,9.10
2023-05-15T11:06:10.067Z,9.68
2023-05-15T11:16:12.902Z,8.30
2023-05-15T11:26:16.056Z,8.18
2023-05-15T11:36:23.911Z,9.13
2023-05-15T11:46:33.819Z,8.65
2023-05-15T11:56:35.696Z,8.10
2023-05-15T12:06:38.787Z,8.95
2023-05-15T12:16:43.840Z,9.05
2023-05-15T12:26:46.937Z,9.23
2023-05-15T12:36:50.886Z,8.38
2023-05-15T12:46:55.882Z,6.15
2023-05-15T12:56:58.326Z,9.27
2023-05-15T13:07:02.264Z,7.50
2023-05-15T13:17:08.475Z,8.70
2023-05-15T13:27:10.442Z,9.25
2023-05-15T13:37:12.397Z,9.23
2023-05-15T13:47:14.389Z,8.73
2023-05-15T13:57:16.619Z,9.30
2023-05-15T14:07:24.504Z,7.93
2023-05-15T14:17:28.155Z,9.27
2023-05-15T14:27:32.195Z,8.88
2023-05-15T14:37:34.252Z,9.10
2023-05-15T14:47:40.662Z,8.52
2023-05-15T14:57:42.672Z,9.65
2023-05-15T15:08:02.084Z,8.70
2023-05-15T15:18:10.445Z,8.75
2023-05-15T15:28:16.805Z,7.88
2023-05-15T15:38:23.865Z,8.88
2023-05-15T15:48:28.107Z,9.18
2023-05-15T15:58:37.330Z,8.65
2023-05-15T16:08:39.321Z,7.05
2023-05-15T16:18:41.368Z,8.98
2023-05-15T16:28:43.379Z,8.60
2023-05-15T16:38:45.518Z,6.93
2023-05-15T16:49:04.658Z,7.25
2023-05-15T17:09:18.644Z,7.07
2023-05-15T17:19:28.414Z,7.97
2023-05-15T17:29:43.419Z,8.23
2023-05-15T17:39:45.465Z,7.57
2023-05-15T17:49:48.553Z,8.02
2023-05-15T17:59:50.592Z,8.10
2023-05-15T18:09:53.675Z,8.98
2023-05-15T18:19:55.716Z,7.07
2023-05-15T18:29:58.194Z,8.90
2023-05-15T18:40:00.259Z,8.27
2023-05-15T18:50:12.017Z,3.38
2023-05-15T19:00:18.893Z,2.60
2023-05-15T19:10:29.734Z,2.38
2023-05-15T19:20:38.955Z,3.67
2023-05-15T19:30:41.448Z,3.45
2023-05-15T19:40:45.887Z,2.75
2023-05-15T19:50:47.974Z,2.50
2023-05-15T20:00:53.005Z,2.83
2023-05-15T20:10:55.213Z,2.78
2023-05-15T20:21:02.312Z,3.63
2023-05-15T20:31:04.455Z,5.95
2023-05-15T20:41:23.212Z,5.75
2023-05-15T20:51:25.402Z,5.70
2023-05-15T21:01:27.397Z,6.32
2023-05-15T21:11:54.935Z,4.80
2023-05-15T21:21:56.883Z,5.22
2023-05-15T21:32:05.996Z,4.40
2023-05-15T21:42:11.184Z,4.28
2023-05-15T21:52:18.973Z,7.28
2023-05-15T22:02:21.035Z,3.30
2023-05-15T22:12:23.057Z,4.32
2023-05-15T22:22:24.931Z,5.75
2023-05-15T22:32:26.964Z,3.25
2023-05-15T22:42:29.035Z,3.55
2023-05-15T22:52:30.867Z,3.83
2023-05-15T23:02:34.911Z,5.63
2023-05-15T23:12:36.810Z,3.75
2023-05-15T23:22:39.604Z,5.03
2023-05-15T23:32:41.653Z,3.70
2023-05-15T23:42:43.547Z,4.50
2023-05-15T23:52:45.481Z,5.40
